DAL200 KATL-FAOR
Flight info
| Callsign | DAL200 |
|---|---|
| Flight time | N/A |
| Altitude | 33000 |
| Route | PHIIL3 HRTWL Q64 TYI DCT ORF AR9 ZIBUT/M085F330 DCT DARUX DCT ANVER DCT 3330N06000W 29N050W 23N040W DCT XIBOT/N0504F330 DCT XUVIT DCT 06N020W 02S010W 07S005W 11S000E 15S005E DCT GUBAG DCT IBNEV UL435 ETOSA UZ10 PEDIL UQ19 AVAGO AVAGO1D |
| Aircraft | A359/H-SDE2E3GHIJ3J4J5LM1ORWXY/LB1D1 |
Departure
| Time | 2026-05-05 02:15 |
|---|---|
| Airport | Hartsfield Jackson Atlanta International Airport (KATL) |
Arrival
| Time | N/A |
|---|---|
| Airport | O.R. Tambo International Airport (FAOR) |
| Time | Latitude | Longitude | Altitude | Speed | Heading |
|---|---|---|---|---|---|
| 2026-05-05 01:35 | 33.63732 | -84.42044 | 1013 ft | 0 kts | 91° |
| 2026-05-05 01:57 | 33.63733 | -84.42062 | 1012 ft | 4 kts | 106° |
| 2026-05-05 01:57 | 33.63742 | -84.42084 | 1013 ft | 4 kts | 143° |
| 2026-05-05 01:57 | 33.63762 | -84.42096 | 1012 ft | 4 kts | 175° |
| 2026-05-05 01:58 | 33.63769 | -84.42097 | 1012 ft | 5 kts | 180° |
| 2026-05-05 02:05 | 33.63767 | -84.42099 | 1012 ft | 2 kts | 198° |
| 2026-05-05 02:05 | 33.63733 | -84.42129 | 1012 ft | 6 kts | 215° |
| 2026-05-05 02:05 | 33.63732 | -84.42130 | 1013 ft | 0 kts | 214° |
| 2026-05-05 02:07 | 33.63723 | -84.42135 | 1013 ft | 6 kts | 203° |
| 2026-05-05 02:07 | 33.63671 | -84.42107 | 1013 ft | 11 kts | 123° |
| 2026-05-05 02:07 | 33.63654 | -84.41984 | 1012 ft | 19 kts | 91° |
| 2026-05-05 02:08 | 33.63654 | -84.41817 | 1012 ft | 20 kts | 90° |
| 2026-05-05 02:08 | 33.63655 | -84.41656 | 1012 ft | 19 kts | 90° |
| 2026-05-05 02:08 | 33.63655 | -84.41592 | 1012 ft | 6 kts | 90° |
| 2026-05-05 02:08 | 33.63655 | -84.41498 | 1012 ft | 18 kts | 90° |
| 2026-05-05 02:09 | 33.63655 | -84.41344 | 1012 ft | 18 kts | 90° |
| 2026-05-05 02:09 | 33.63655 | -84.41195 | 1012 ft | 17 kts | 90° |
| 2026-05-05 02:09 | 33.63655 | -84.41079 | 1012 ft | 10 kts | 90° |
| 2026-05-05 02:09 | 33.63654 | -84.40995 | 1012 ft | 10 kts | 90° |
| 2026-05-05 02:10 | 33.63654 | -84.40901 | 1012 ft | 12 kts | 90° |
| 2026-05-05 02:10 | 33.63652 | -84.40804 | 1013 ft | 11 kts | 102° |
| 2026-05-05 02:10 | 33.63602 | -84.40752 | 1013 ft | 9 kts | 167° |
| 2026-05-05 02:10 | 33.63596 | -84.40751 | 1013 ft | 0 kts | 166° |
| 2026-05-05 02:12 | 33.63575 | -84.40747 | 1013 ft | 11 kts | 175° |
| 2026-05-05 02:12 | 33.63499 | -84.40768 | 1013 ft | 11 kts | 217° |
| 2026-05-05 02:13 | 33.63475 | -84.40846 | 1013 ft | 10 kts | 264° |
| 2026-05-05 02:13 | 33.63472 | -84.40926 | 1013 ft | 9 kts | 268° |
| 2026-05-05 02:13 | 33.63470 | -84.41011 | 1012 ft | 16 kts | 268° |
| 2026-05-05 02:13 | 33.63471 | -84.41362 | 1012 ft | 66 kts | 270° |
| 2026-05-05 02:14 | 33.63470 | -84.42100 | 1012 ft | 110 kts | 270° |
| 2026-05-05 02:14 | 33.63472 | -84.43178 | 1011 ft | 148 kts | 270° |
| 2026-05-05 02:14 | 33.63473 | -84.44523 | 1179 ft | 164 kts | 268° |
| 2026-05-05 02:14 | 33.63481 | -84.45899 | 1533 ft | 166 kts | 270° |
| 2026-05-05 02:15 | 33.63375 | -84.47273 | 1941 ft | 164 kts | 251° |
| 2026-05-05 02:15 | 33.63021 | -84.48562 | 2297 ft | 168 kts | 245° |
| 2026-05-05 02:15 | 33.62516 | -84.49893 | 2483 ft | 183 kts | 239° |
| 2026-05-05 02:15 | 33.61893 | -84.51303 | 2667 ft | 200 kts | 239° |
| 2026-05-05 02:16 | 33.61221 | -84.52825 | 2950 ft | 210 kts | 240° |
| 2026-05-05 02:16 | 33.60543 | -84.54396 | 3406 ft | 213 kts | 240° |
| 2026-05-05 02:16 | 33.59840 | -84.56029 | 3617 ft | 228 kts | 239° |
| 2026-05-05 02:16 | 33.58859 | -84.57588 | 3772 ft | 242 kts | 218° |
| 2026-05-05 02:17 | 33.57321 | -84.58443 | 4016 ft | 250 kts | 188° |
| 2026-05-05 02:17 | 33.55578 | -84.58544 | 4489 ft | 253 kts | 180° |
| 2026-05-05 02:17 | 33.53811 | -84.58515 | 4976 ft | 256 kts | 180° |
| 2026-05-05 02:17 | 33.52018 | -84.58489 | 5472 ft | 259 kts | 180° |
| 2026-05-05 02:18 | 33.50203 | -84.58470 | 5971 ft | 262 kts | 180° |
| 2026-05-05 02:18 | 33.48382 | -84.58175 | 6439 ft | 268 kts | 163° |
| 2026-05-05 02:18 | 33.46781 | -84.57009 | 6910 ft | 276 kts | 136° |
| 2026-05-05 02:18 | 33.45798 | -84.55018 | 7369 ft | 284 kts | 107° |
| 2026-05-05 02:19 | 33.45579 | -84.52652 | 7884 ft | 289 kts | 91° |
| 2026-05-05 02:19 | 33.45593 | -84.50232 | 8400 ft | 292 kts | 90° |
| 2026-05-05 02:19 | 33.45615 | -84.47791 | 8941 ft | 295 kts | 91° |
| 2026-05-05 02:19 | 33.45624 | -84.45329 | 9521 ft | 297 kts | 91° |
| 2026-05-05 02:20 | 33.45622 | -84.42843 | 10046 ft | 300 kts | 91° |
| 2026-05-05 02:20 | 33.45615 | -84.40345 | 10355 ft | 310 kts | 91° |
| 2026-05-05 02:20 | 33.45603 | -84.37660 | 10553 ft | 325 kts | 91° |
| 2026-05-05 02:20 | 33.45600 | -84.34894 | 10756 ft | 339 kts | 89° |
| 2026-05-05 02:21 | 33.45953 | -84.32047 | 10932 ft | 353 kts | 75° |
| 2026-05-05 02:21 | 33.46646 | -84.29208 | 11134 ft | 366 kts | 73° |
| 2026-05-05 02:21 | 33.47420 | -84.26245 | 11326 ft | 379 kts | 73° |
| 2026-05-05 02:21 | 33.48211 | -84.23195 | 11590 ft | 387 kts | 73° |
| 2026-05-05 02:22 | 33.49006 | -84.20099 | 12006 ft | 391 kts | 73° |
| 2026-05-05 02:22 | 33.49805 | -84.16967 | 12461 ft | 394 kts | 73° |
| 2026-05-05 02:22 | 33.50345 | -84.14840 | 12763 ft | 396 kts | 73° |
| 2026-05-05 02:22 | 33.51409 | -84.10638 | 13346 ft | 399 kts | 73° |
| 2026-05-05 02:23 | 33.52215 | -84.07446 | 13750 ft | 402 kts | 73° |
| 2026-05-05 02:23 | 33.53027 | -84.04221 | 14166 ft | 405 kts | 73° |
| 2026-05-05 02:23 | 33.53843 | -84.00979 | 14547 ft | 408 kts | 73° |
| 2026-05-05 02:23 | 33.54664 | -83.97711 | 14929 ft | 411 kts | 73° |
| 2026-05-05 02:24 | 33.55211 | -83.95533 | 15196 ft | 413 kts | 73° |
| 2026-05-05 02:24 | 33.56041 | -83.92221 | 15594 ft | 416 kts | 73° |
| 2026-05-05 02:24 | 33.56876 | -83.88889 | 15994 ft | 419 kts | 73° |
| 2026-05-05 02:24 | 33.57717 | -83.85529 | 16395 ft | 422 kts | 73° |
| 2026-05-05 02:25 | 33.58656 | -83.82174 | 16795 ft | 425 kts | 68° |
| 2026-05-05 02:25 | 33.59841 | -83.78915 | 17214 ft | 428 kts | 65° |
| 2026-05-05 02:25 | 33.61092 | -83.75649 | 17618 ft | 431 kts | 65° |
| 2026-05-05 02:25 | 33.61552 | -83.74446 | 17765 ft | 432 kts | 65° |